»·PEaware :: SKY627 KFHR-KORS

SKY627 :: KFHR-KORS

FLIGHT INFORMATION

Flight Status: Arrived
Operator:
Sky High Charters
More flights by this operator :: More flights under this callsign
Pilot: Andrew S. (24594)
Aircraft: CESSNA 208 CARAVAN
(C208)
More flights by this aircraft type
Origin: KFHR Friday Harbor
United States
Destination: KORS Orcas Island
United States
More flights between these airports :: More routes between these airports
Route: FHR APDON
File this flight plan on PilotEdge
Remarks:
Altitude:
(Current/Filed)
5,000ft
Speed:
(Current/Filed)
180kts
Departed: 27-Jun-20 03:51 PM
Arrived: 27-Jun-20 04:30 PM
Distance/Time
Traveled:
12nm/0:39
Distance/Time
To Go:
Arrived

Flight Plot

Page will automatically refresh every two minutes.

Flight plan parsing failed; only flown route is shown


Map Options




Map Legend


Flown Route
Filed Route
Departure Airport
Arrival Airport
Navaid (VOR, NDB)
Fix

Horizontal Profiles

Position Reports

Time Latitude Longitude Heading Altitude Ground
Speed
27-Jun-20 15:38 48.524908 -123.025969 11 117ft 0kts
27-Jun-20 15:39 48.524908 -123.025969 11 117ft 0kts
27-Jun-20 15:40 48.524908 -123.025969 11 117ft 0kts
27-Jun-20 15:41 48.524908 -123.025969 11 117ft 0kts
27-Jun-20 15:42 48.524908 -123.025969 11 117ft 0kts
27-Jun-20 15:43 48.524908 -123.025969 11 117ft 0kts
27-Jun-20 15:44 48.525172 -123.025972 357 117ft 8kts
27-Jun-20 15:45 48.526492 -123.026047 56 121ft 0kts
27-Jun-20 15:46 48.526492 -123.026047 56 121ft 0kts
27-Jun-20 15:47 48.526492 -123.026047 56 121ft 0kts
27-Jun-20 15:48 48.526492 -123.026047 56 121ft 0kts
27-Jun-20 15:49 48.526558 -123.025482 88 119ft 1kts
27-Jun-20 15:50 48.524354 -123.024582 180 109ft 68kts
27-Jun-20 15:51 48.506632 -123.021924 183 935ft 110kts
27-Jun-20 15:52 48.492752 -123.008667 99 2309ft 101kts
27-Jun-20 15:53 48.506648 -122.990053 338 2999ft 134kts
27-Jun-20 15:54 48.517895 -123.017831 291 4084ft 111kts
27-Jun-20 15:55 48.541877 -123.020380 23 4797ft 163kts
27-Jun-20 15:56 48.560336 -123.006051 21 4994ft 165kts
27-Jun-20 15:57 48.580289 -122.991181 22 5001ft 167kts
27-Jun-20 15:58 48.603487 -122.973819 22 4997ft 168kts
27-Jun-20 15:59 48.628789 -122.954857 23 4995ft 173kts
27-Jun-20 16:00 48.657867 -122.933004 24 4990ft 190kts
27-Jun-20 16:01 48.690578 -122.908412 24 4981ft 166kts
27-Jun-20 16:02 48.717534 -122.888135 24 5009ft 161kts
27-Jun-20 16:03 48.747128 -122.865842 25 5012ft 171kts
27-Jun-20 16:04 48.778821 -122.841924 26 5013ft 174kts
27-Jun-20 16:05 48.811009 -122.817597 26 5014ft 174kts
27-Jun-20 16:06 48.842643 -122.793648 26 5032ft 171kts
27-Jun-20 16:07 48.868158 -122.774297 26 5012ft 138kts
27-Jun-20 16:08 48.889265 -122.758301 25 5016ft 129kts
27-Jun-20 16:09 48.909875 -122.745542 8 5019ft 128kts
27-Jun-20 16:10 48.933512 -122.741106 7 5018ft 128kts
27-Jun-20 16:12 48.958239 -122.735280 27 5009ft 128kts
27-Jun-20 16:13 48.955964 -122.706515 178 5009ft 130kts
27-Jun-20 16:14 48.936166 -122.723938 213 5019ft 119kts
27-Jun-20 16:15 48.918001 -122.739655 210 5017ft 117kts
27-Jun-20 16:16 48.898292 -122.756995 210 4735ft 122kts
27-Jun-20 16:17 48.877787 -122.775151 209 4217ft 108kts
27-Jun-20 16:18 48.858504 -122.792248 207 3724ft 99kts
27-Jun-20 16:19 48.841079 -122.807686 206 3291ft 88kts
27-Jun-20 16:20 48.823715 -122.823011 206 2858ft 93kts
27-Jun-20 16:21 48.806752 -122.838018 206 2413ft 93kts
27-Jun-20 16:22 48.793216 -122.850008 206 2048ft 79kts
27-Jun-20 16:23 48.781506 -122.860332 206 1765ft 78kts
27-Jun-20 16:24 48.769404 -122.871015 207 1459ft 83kts
27-Jun-20 16:25 48.757824 -122.881244 207 1161ft 85kts
27-Jun-20 16:25 48.747574 -122.890289 207 898ft 84kts
27-Jun-20 16:27 48.732498 -122.903558 208 530ft 91kts
27-Jun-20 16:28 48.720509 -122.910915 176 175ft 75kts
27-Jun-20 16:28 48.711233 -122.910573 180 22ft 56kts
27-Jun-20 16:30 48.709692 -122.909493 238 27ft 0kts
27-Jun-20 16:31 48.709692 -122.909493 238 27ft 0kts
27-Jun-20 16:31 48.709692 -122.909493 238 27ft 0kts
27-Jun-20 16:33 48.709692 -122.909493 238 27ft 0kts
27-Jun-20 16:33 48.709692 -122.909493 238 27ft 0kts

Navigation Log

Ident Type
Flight plan parsing failed, navigation log unavailable